• Join FlightAware (Why Join?)
  • Login
  • US Flag 
03:33AM EDT


 

Airport Tracker/Info


-or-


 

Live Flight TrackerFlight Track Log ✈ UAL4407 ✈ 26-Apr-2013 ✈ KMHT - KEWR

Flight Track Log - Related Links

Times and Time Zones

All times are in EDT time to prevent confusion due to time zone crossing. See the UAL4407 flight status page for this flight to view local times or setup timezone preferences in your user account.

Time Position Orientation Groundspeed Altitude Reporting Facility
EDT Latitude Longitude Course Direction KTS MPH feet Rate Location/Type
06:13AM 42.9500 -71.4167 280° West 162 186 1,100  Level KA90
06:14AM 43.0106 -71.3981 13° North 194 223 4,000 2,760 Climbing Boston Center
06:15AM 43.0486 -71.4683 307° West 195 224 7,200 3,000 Climbing Boston Center
06:16AM 42.9573 -71.7081 280° West  Level FlightAware Approximate
06:16AM 43.0619 -71.5564 282° West 229 264 10,000  Level Boston Center
06:17AM 42.9668 -71.8013 280° West  Level FlightAware Approximate
06:17AM 43.0708 -71.6700 276° West 282 325 11,100  Level Boston Center
06:18AM 42.9785 -71.8943 280° West  Level FlightAware Approximate
06:18AM 43.0800 -71.7919 276° West 318 366 13,500  Level Boston Center
06:19AM 43.0892 -71.9169 276° West 333 383 15,900 2,040 Climbing Boston Center
06:20AM 43.0978 -72.0419 275° West 333 383 17,600 1,440 Climbing Boston Center
06:21AM 43.1067 -72.1669 276° West 333 383 18,800 1,860 Climbing Boston Center
06:22AM 43.1194 -72.2922 278° West 333 383 21,400 1,560 Climbing Boston Center
06:23AM 43.1339 -72.4172 279° West 333 383 22,000 300 Climbing Boston Center
06:24AM 43.1028 -72.5567 253° West 358 412 22,000  Level Boston Center
06:25AM 43.0608 -72.6758 244° Southwest 401 461 22,000  Level Boston Center
06:26AM 43.0231 -72.8150 250° West 396 456 22,000  Level Boston Center
06:27AM 42.9850 -72.9539 250° West 396 456 22,000  Level Boston Center
06:28AM 42.9467 -73.1039 251° West 391 450 22,000 -300 Level Boston Center
06:29AM 42.9081 -73.2422 249° West 386 444 21,400 -780 Descending Boston Center
06:30AM 42.8783 -73.3467 249° West 386 444 20,500 -1,200 Descending Boston Center
06:31AM 42.8353 -73.4989 249° West 380 437 19,100 -1,200 Descending Boston Center
06:32AM 42.7986 -73.6172 247° West 361 415 18,100 -1,320 Descending Boston Center
06:33AM 42.7661 -73.7439 251° West 350 403 16,500 -1,080 Descending Boston Center
06:34AM 42.6983 -73.8328 224° Southwest 350 403 16,000 -300 Descending Boston Center
06:35AM 42.6039 -73.8758 199° South 341 392 16,000  Level Boston Center
06:36AM 42.5075 -73.9103 195° South 352 405 16,000  Level Boston Center
06:37AM 42.4194 -73.9503 199° South 368 423 16,000  Level Boston Center
06:38AM 42.3167 -73.9956 198° South 368 423 16,000  Level Boston Center
06:39AM 42.2372 -74.0300 198° South 352 405 16,100  Climbing Boston Center
06:40AM 42.1469 -74.0697 198° South 347 399 16,100 -60 Level Boston Center
06:41AM 42.0608 -74.1094 199° South 347 399 16,000 -900 Descending Boston Center
06:42AM 41.9769 -74.1464 198° South 307 353 14,300 -1,680 Descending Boston Center
06:43AM 41.9097 -74.1781 199° South 286 329 12,700 -1,680 Descending Boston Center
06:44AM 41.8322 -74.2094 197° South 278 320 11,000 -1,680 Descending Boston Center
06:45AM 41.7714 -74.2356 198° South 266 306 9,400 -1,500 Descending Boston Center
06:46AM 41.6958 -74.2667 197° South 260 299 8,100 -900 Descending Boston Center
06:47AM 41.6350 -74.2956 200° South 260 299 7,700 -540 Descending Boston Center
06:48AM 41.5594 -74.3267 197° South 260 299 7,100 -300 Descending Boston Center
06:50AM 41.4624 -74.3599 196° South  Level FlightAware Approximate
06:50AM 41.4500 -74.3833 196° South 257 296 7,000  Level New York TRACON
06:51AM 41.3667 -74.4000 189° South 268 308 7,000  Level New York TRACON
06:52AM 41.3167 -74.4333 207° Southwest 260 299 7,000  Level New York TRACON
06:53AM 41.2333 -74.4667 197° South 265 305 7,000  Level New York TRACON
06:54AM 41.1667 -74.5000 201° Southwest 264 304 7,000 -120 Level New York TRACON
06:55AM 41.1000 -74.5333 201° Southwest 267 307 6,800 -600 Descending New York TRACON
06:56AM 41.0333 -74.5500 191° South 265 305 5,800 -900 Descending New York TRACON
06:57AM 40.9500 -74.5500 180° South 269 310 5,000 -480 Descending New York TRACON
06:58AM 40.9000 -74.5500 180° South 265 305 5,000  Level New York TRACON
06:59AM 40.8167 -74.5500 180° South 269 310 5,000  Level New York TRACON
07:00AM 40.7500 -74.5167 159° South 270 311 5,000  Level New York TRACON
07:01AM 40.6833 -74.5000 169° South 270 311 5,000  Level New York TRACON
07:02AM 40.6167 -74.4667 159° South 267 307 5,000 -360 Level New York TRACON
07:03AM 40.5500 -74.4500 169° South 231 266 4,400 -540 Descending New York TRACON
07:04AM 40.4833 -74.4167 159° South 228 262 4,000 -480 Descending New York TRACON
07:05AM 40.4500 -74.3667 131° Southeast 243 280 3,600 -540 Descending New York TRACON
07:06AM 40.4833 -74.3000 57° Northeast 225 259 3,000 -360 Descending New York TRACON
07:06AM 40.5333 -74.2667 27° Northeast 212 244 3,000 -480 Level New York TRACON
07:07AM 40.5833 -74.2333 27° Northeast 209 241 2,200 -840 Descending New York TRACON